Time;durP1;ratioP1;P1;durP2;ratioP2;P2;SDS_P1;SDS_P2;PMS_P1;PMS_P2;Temp;Humidity;BMP_temperature;BMP_pressure;BME280_temperature;BME280_humidity;BME280_pressure;Samples;Min_cycle;Max_cycle;Signal;HPM_P1;HPM_P2
2022/02/03 00:02:37;;;;;;;50.35;20.65;;;;;;;8.44;93.12;101692.97;5091039;28;20044;-64
2022/02/03 00:05:09;;;;;;;52.55;21.25;;;;;;;8.40;93.44;101687.09;5089930;28;20055;-65
2022/02/03 00:07:45;;;;;;;46.67;20.17;;;;;;;8.37;93.20;101692.59;5089069;28;20496;-65
2022/02/03 00:10:34;;;;;;;44.83;21.27;;;;;;;8.36;93.55;101685.59;5093522;28;20044;-65
2022/02/03 00:16:41;;;;;;;49.50;21.83;;;;;;;8.40;93.36;101679.16;5086010;28;20082;-65
2022/02/03 00:22:35;;;;;;;44.72;20.83;;;;;;;8.69;92.25;101683.16;5092350;28;20047;-65
2022/02/03 00:24:51;;;;;;;47.42;20.80;;;;;;;8.60;92.47;101677.66;5088270;28;20059;-65
2022/02/03 00:27:37;;;;;;;;;;;;;;;8.52;92.92;101673.91;5088435;28;20040;-65
2022/02/03 00:30:10;;;;;;;41.72;18.63;;;;;;;8.56;92.37;101673.53;5088828;28;19920;-65
2022/02/03 00:32:49;;;;;;;47.65;20.75;;;;;;;8.45;92.53;101676.16;5085870;28;20050;-65
2022/02/03 00:38:04;;;;;;;43.42;20.98;;;;;;;8.70;92.15;101671.66;5088234;28;20054;-65
2022/02/03 00:48:57;;;;;;;52.40;23.20;;;;;;;8.55;93.09;101652.50;5090822;28;20047;-65
2022/02/03 00:51:26;;;;;;;49.15;21.42;;;;;;;8.48;93.14;101656.56;5092201;28;20532;-64
2022/02/03 00:53:55;;;;;;;49.67;22.70;;;;;;;8.54;92.48;101656.94;5092183;28;20085;-65
2022/02/03 00:56:31;;;;;;;48.13;22.10;;;;;;;8.46;92.15;101662.00;5091963;28;20043;-64
2022/02/03 00:59:22;;;;;;;48.40;22.45;;;;;;;8.34;92.42;101652.31;5090500;28;20042;-65
2022/02/03 01:01:50;;;;;;;46.47;21.75;;;;;;;8.39;92.80;101655.47;5090579;28;20044;-65
2022/02/03 01:04:17;;;;;;;49.08;22.65;;;;;;;8.29;93.09;101650.00;5084049;28;20090;-65
2022/02/03 01:06:50;;;;;;;50.08;23.02;;;;;;;8.41;93.26;101648.25;5085270;28;20044;-65
2022/02/03 01:09:23;;;;;;;47.83;22.90;;;;;;;8.47;93.01;101644.31;5089551;28;20124;-65
2022/02/03 01:12:02;;;;;;;48.28;22.70;;;;;;;8.39;93.21;101652.81;5086571;28;20050;-65
2022/02/03 01:14:43;;;;;;;51.15;23.27;;;;;;;8.55;92.13;101653.34;5084205;28;20485;-64
2022/02/03 01:34:31;;;;;;;47.70;23.05;;;;;;;8.65;91.23;101627.84;5090220;28;20097;-64
2022/02/03 01:45:38;;;;;;;48.60;22.65;;;;;;;8.51;92.29;101636.00;5096094;28;20044;-65
2022/02/03 01:53:45;;;;;;;42.85;21.30;;;;;;;8.52;91.79;101632.44;5092488;28;20085;-65
2022/02/03 01:56:16;;;;;;;45.13;22.00;;;;;;;8.54;91.36;101625.22;5057247;28;20048;-65
2022/02/03 01:58:53;;;;;;;45.97;20.13;;;;;;;8.58;91.96;101631.09;5091758;28;20071;-65
2022/02/03 02:01:25;;;;;;;49.67;22.80;;;;;;;8.60;90.73;101629.19;5089637;28;20044;-64
2022/02/03 02:04:24;;;;;;;48.78;23.00;;;;;;;8.53;91.57;101620.91;5088116;28;20040;-64
2022/02/03 02:07:27;;;;;;;45.88;22.50;;;;;;;8.50;92.00;101618.47;5084640;28;20055;-64
2022/02/03 02:14:09;;;;;;;47.83;22.45;;;;;;;8.55;91.69;101613.69;5123622;27;20403;-65
2022/02/03 02:16:39;;;;;;;52.53;23.30;;;;;;;8.65;90.93;101614.63;5117004;27;20050;-65
2022/02/03 02:19:26;;;;;;;49.67;21.50;;;;;;;8.52;91.69;101605.16;5109718;28;20048;-65
2022/02/03 02:43:10;;;;;;;42.85;20.17;;;;;;;8.36;92.13;101581.66;5107544;28;20047;-64
2022/02/03 02:46:00;;;;;;;48.08;20.95;;;;;;;8.41;92.39;101576.84;5106053;28;20036;-64
2022/02/03 02:49:01;;;;;;;42.17;20.42;;;;;;;8.37;92.46;101578.06;5114192;27;20040;-65
2022/02/03 02:52:06;;;;;;;39.13;19.45;;;;;;;8.38;92.26;101572.63;5109072;28;20436;-65
2022/02/03 02:55:01;;;;;;;46.60;20.35;;;;;;;8.31;92.19;101575.88;5119553;28;20047;-65
2022/02/03 03:37:49;;;;;;;41.17;21.73;;;;;;;8.19;92.28;101543.31;5095766;28;20044;-64
2022/02/03 03:40:06;;;;;;;39.92;21.40;;;;;;;8.08;92.34;101546.78;5099843;28;20054;-64
2022/02/03 03:42:35;;;;;;;42.22;21.45;;;;;;;8.23;92.27;101550.88;5079798;28;20032;-64
2022/02/03 03:45:05;;;;;;;38.45;20.67;;;;;;;8.31;92.15;101552.09;5095143;28;20097;-64
2022/02/03 03:47:35;;;;;;;40.92;21.17;;;;;;;8.21;92.43;101544.03;5106640;28;20063;-64
2022/02/03 03:50:16;;;;;;;45.67;21.65;;;;;;;8.14;93.40;101537.53;5093462;28;20040;-63
2022/02/03 03:52:53;;;;;;;42.25;20.05;;;;;;;8.19;93.38;101530.94;5099322;28;20438;-63
2022/02/03 03:58:11;;;;;;;41.42;21.33;;;;;;;8.09;94.22;101529.97;5101840;28;20044;-64
2022/02/03 04:56:42;;;;;;;26.98;9.90;;;;;;;7.99;88.57;101462.94;5109595;28;20039;-65
2022/02/03 05:00:25;;;;;;;21.17;10.05;;;;;;;7.93;88.92;101463.41;5108636;28;20480;-65
2022/02/03 05:06:41;;;;;;;23.20;10.02;;;;;;;8.01;88.98;101459.22;5106029;28;20549;-64
2022/02/03 05:09:57;;;;;;;19.20;9.50;;;;;;;8.13;87.72;101459.22;5109369;28;20115;-64
2022/02/03 05:12:48;;;;;;;;;;;;;;;8.19;86.60;101453.47;5107683;28;20087;-64
2022/02/03 05:15:40;;;;;;;18.33;9.38;;;;;;;8.14;87.01;101451.16;5111639;28;19963;-64
2022/02/03 05:18:45;;;;;;;19.95;9.25;;;;;;;7.98;88.10;101456.81;5109508;28;20047;-64
2022/02/03 06:04:32;;;;;;;19.75;9.48;;;;;;;7.93;88.82;101431.69;5045759;28;20981;-65
2022/02/03 06:15:27;;;;;;;20.73;9.57;;;;;;;7.76;90.50;101420.66;5049768;28;20047;-64
2022/02/03 06:20:42;;;;;;;20.90;9.43;;;;;;;7.83;90.25;101418.38;5018509;28;20041;-64
2022/02/03 06:29:16;;;;;;;18.90;9.55;;;;;;;7.78;90.07;101413.44;5037622;28;20065;-64
2022/02/03 06:31:47;;;;;;;25.30;10.43;;;;;;;7.87;89.98;101406.59;5047554;28;20136;-64
2022/02/03 06:34:16;;;;;;;25.02;10.15;;;;;;;7.81;90.67;101407.09;5047978;28;20073;-64
2022/02/03 06:36:43;;;;;;;22.02;9.98;;;;;;;7.78;90.93;101410.81;5037621;28;20033;-64
2022/02/03 06:39:29;;;;;;;23.20;10.77;;;;;;;7.79;89.91;101412.50;5055370;28;20131;-63
2022/02/03 06:42:00;;;;;;;22.17;11.48;;;;;;;7.85;90.55;101398.81;5045446;28;20049;-66
2022/02/03 06:44:34;;;;;;;25.55;11.18;;;;;;;7.85;90.31;101398.81;5034180;28;20037;-64
2022/02/03 06:47:09;;;;;;;26.27;11.73;;;;;;;7.90;90.93;101392.34;5051958;28;20060;-66
2022/02/03 06:52:40;;;;;;;23.40;12.23;;;;;;;7.69;91.40;101393.03;5049557;28;20048;-64
2022/02/03 06:55:14;;;;;;;24.25;11.95;;;;;;;7.61;92.70;101393.63;5051879;28;20486;-66
2022/02/03 06:57:49;;;;;;;29.05;13.30;;;;;;;7.80;91.35;101392.19;5053622;28;20037;-64
2022/02/03 07:00:21;;;;;;;24.35;12.77;;;;;;;7.66;92.09;101388.84;5030890;28;20091;-64
2022/02/03 07:02:51;;;;;;;24.15;12.52;;;;;;;7.82;91.23;101392.91;5051097;28;20041;-64
2022/02/03 07:05:18;;;;;;;27.48;11.85;;;;;;;7.68;91.50;101389.56;5051371;28;20262;-64
2022/02/03 07:07:45;;;;;;;27.08;12.40;;;;;;;7.59;92.48;101390.28;5039696;28;20064;-64
2022/02/03 07:10:12;;;;;;;27.95;13.65;;;;;;;7.61;92.59;101393.63;5041345;28;20540;-64
2022/02/03 07:12:39;;;;;;;27.83;12.07;;;;;;;7.66;92.49;101383.56;5037312;28;20095;-64
2022/02/03 07:15:07;;;;;;;25.45;12.15;;;;;;;7.67;92.56;101379.94;5039857;28;20034;-64
2022/02/03 07:17:36;;;;;;;22.13;11.48;;;;;;;7.72;92.77;101379.59;5035223;28;20444;-64
2022/02/03 07:20:06;;;;;;;25.15;11.63;;;;;;;7.82;91.65;101385.00;5037107;28;20038;-64
2022/02/03 07:22:34;;;;;;;27.00;11.68;;;;;;;7.68;91.91;101381.63;5016903;28;20057;-64
2022/02/03 07:25:02;;;;;;;25.70;11.52;;;;;;;7.74;92.13;101375.03;5024702;28;20051;-64
2022/02/03 07:27:29;;;;;;;24.92;11.40;;;;;;;7.68;91.76;101365.78;5034744;28;20049;-65
2022/02/03 07:29:56;;;;;;;22.88;12.13;;;;;;;7.67;92.36;101350.06;5011123;28;20397;-64
2022/02/03 07:32:24;;;;;;;24.45;12.23;;;;;;;7.55;93.16;101351.00;5032034;28;20041;-64
2022/02/03 07:34:53;;;;;;;22.85;12.25;;;;;;;7.62;93.08;101344.28;5034866;28;20429;-64
2022/02/03 07:37:24;;;;;;;29.23;12.10;;;;;;;7.77;91.65;101344.91;5040276;28;20098;-64
2022/02/03 07:39:51;;;;;;;29.50;12.93;;;;;;;7.62;92.45;101336.38;5042104;28;20482;-64
2022/02/03 07:42:17;;;;;;;26.85;14.00;;;;;;;7.61;93.21;101332.91;5034501;28;20042;-64
2022/02/03 07:44:44;;;;;;;30.90;13.70;;;;;;;7.70;92.66;101323.44;5034487;28;20041;-64
2022/02/03 07:47:13;;;;;;;25.80;12.93;;;;;;;7.73;92.09;101340.81;5008053;28;20060;-64
2022/02/03 07:49:39;;;;;;;31.95;13.65;;;;;;;7.76;92.15;101351.97;5038881;28;20111;-64
2022/02/03 07:52:06;;;;;;;29.95;14.20;;;;;;;7.61;92.48;101354.03;5006401;28;20041;-64
2022/02/03 07:54:33;;;;;;;32.85;14.23;;;;;;;7.66;92.81;101353.69;5033638;28;20085;-64
2022/02/03 07:57:01;;;;;;;28.02;14.13;;;;;;;7.72;92.32;101341.78;5003781;28;20057;-64
2022/02/03 07:59:28;;;;;;;28.30;13.20;;;;;;;7.73;91.44;101344.31;5021344;28;20121;-64
2022/02/03 08:01:55;;;;;;;26.55;13.02;;;;;;;7.75;90.45;101360.03;5034515;28;20053;-64
2022/02/03 08:04:27;;;;;;;32.47;12.40;;;;;;;7.80;89.98;101360.50;5017090;28;20038;-64
2022/02/03 08:06:54;;;;;;;25.42;12.25;;;;;;;7.78;90.47;101344.78;5033221;28;20405;-64
2022/02/03 08:09:28;;;;;;;30.55;12.70;;;;;;;7.74;89.71;101327.50;5040343;28;20037;-64
2022/02/03 08:11:55;;;;;;;23.92;11.32;;;;;;;7.83;89.82;101329.41;5040013;28;20069;-64
2022/02/03 08:14:34;;;;;;;22.23;10.68;;;;;;;7.94;89.25;101322.44;5021111;28;20122;-64
2022/02/03 08:17:06;;;;;;;28.02;11.32;;;;;;;7.84;89.01;101319.66;5033898;28;20045;-64
2022/02/03 08:19:43;;;;;;;24.23;11.18;;;;;;;7.79;89.42;101311.31;5037904;28;20037;-64
2022/02/03 08:22:16;;;;;;;23.10;10.50;;;;;;;7.90;88.97;101306.00;5022113;28;20053;-66
2022/02/03 08:24:53;;;;;;;24.38;11.15;;;;;;;7.85;88.57;101294.94;5022342;28;20037;-64
2022/02/03 08:32:43;;;;;;;21.90;9.85;;;;;;;7.92;88.52;101284.75;5034651;28;20531;-64
2022/02/03 08:35:21;;;;;;;20.13;10.77;;;;;;;8.01;88.05;101271.63;5019390;28;20125;-64
2022/02/03 08:40:31;;;;;;;20.25;8.57;;;;;;;7.73;88.70;101275.66;4999494;28;20053;-65
2022/02/03 08:42:58;;;;;;;22.20;9.38;;;;;;;7.88;88.80;101290.25;5010139;28;20106;-68
2022/02/03 08:45:25;;;;;;;22.75;9.80;;;;;;;7.80;89.05;101276.81;5037579;28;20103;-64
2022/02/03 08:47:51;;;;;;;23.02;10.32;;;;;;;7.85;88.62;101272.00;5040926;28;20382;-64
2022/02/03 08:50:19;;;;;;;23.08;10.10;;;;;;;7.76;89.14;101269.28;5015822;28;20053;-64
2022/02/03 08:53:03;;;;;;;23.17;10.13;;;;;;;7.88;88.70;101268.28;5036869;28;20036;-64
2022/02/03 08:55:41;;;;;;;24.75;10.52;;;;;;;7.90;87.94;101278.75;5019800;28;20042;-64
2022/02/03 09:28:13;;;;;;;23.08;10.52;;;;;;;7.78;89.02;101277.91;5122080;27;20165;-65
2022/02/03 09:29:34;;;;;;;27.65;10.68;;;;;;;7.61;88.93;101277.44;5104878;28;20124;-64
2022/02/03 09:37:27;;;;;;;23.00;11.48;;;;;;;7.68;88.96;101285.75;5103385;28;20126;-64
2022/02/03 09:56:24;;;;;;;25.70;11.82;;;;;;;7.63;87.93;101251.75;5076711;28;20106;-64
2022/02/03 09:59:04;;;;;;;24.52;11.57;;;;;;;7.69;87.94;101251.28;5083655;28;20127;-65
2022/02/03 10:01:39;;;;;;;24.33;10.77;;;;;;;7.83;86.65;101241.41;5065071;28;20048;-65
2022/02/03 10:04:29;;;;;;;32.28;11.82;;;;;;;7.81;86.49;101243.34;5085695;28;20124;-65
2022/02/03 10:06:58;;;;;;;24.40;10.95;;;;;;;7.63;85.42;101241.19;5084011;28;20499;-66
2022/02/03 10:09:42;;;;;;;262.42;96.55;;;;;;;7.86;85.56;101249.94;5087643;28;20416;-65
2022/02/03 10:12:10;;;;;;;22.30;10.82;;;;;;;7.90;84.10;101233.84;5049383;28;20049;-64
2022/02/03 10:14:39;;;;;;;20.33;10.73;;;;;;;7.82;83.56;101235.28;5069933;28;20049;-65
2022/02/03 10:17:07;;;;;;;21.13;10.57;;;;;;;7.75;84.60;101238.53;5043323;28;20040;-65
2022/02/03 10:19:38;;;;;;;19.40;10.48;;;;;;;7.79;83.05;101238.19;5066572;28;20040;-65
2022/02/03 10:22:23;;;;;;;22.95;10.00;;;;;;;7.75;83.34;101226.19;5066111;28;20044;-65
2022/02/03 10:24:52;;;;;;;18.02;9.13;;;;;;;7.78;82.84;101233.00;5016267;28;21338;-63
2022/02/03 10:27:29;;;;;;;18.05;8.90;;;;;;;7.88;82.15;101229.50;5033860;28;20102;-64
2022/02/03 10:30:23;;;;;;;35.17;16.33;;;;;;;7.91;81.64;101240.78;5066665;28;20393;-67
2022/02/03 10:32:52;;;;;;;98.78;40.47;;;;;;;7.85;81.10;101228.91;5043014;28;20080;-65
2022/02/03 10:35:33;;;;;;;14.48;7.07;;;;;;;7.82;78.82;101237.94;5048784;28;20398;-64
2022/02/03 10:38:35;;;;;;;17.58;7.10;;;;;;;7.75;80.62;101247.31;5051435;28;20045;-64
2022/02/03 10:55:27;;;;;;;12.88;6.10;;;;;;;7.61;77.12;101245.75;5074724;28;20098;-64
2022/02/03 10:58:09;;;;;;;12.05;6.15;;;;;;;7.63;78.50;101235.91;5077201;28;20043;-64
2022/02/03 11:09:16;;;;;;;13.70;5.93;;;;;;;7.76;77.60;101198.78;5079454;28;20098;-64
2022/02/03 11:11:52;;;;;;;13.10;6.13;;;;;;;7.70;78.33;101201.94;5078526;28;20033;-65
2022/02/03 11:14:20;;;;;;;13.52;5.60;;;;;;;7.54;77.53;101212.06;5076672;28;20040;-64
2022/02/03 11:16:47;;;;;;;12.50;5.68;;;;;;;7.74;76.49;101207.81;5068528;28;20045;-63
2022/02/03 11:19:16;;;;;;;11.52;5.47;;;;;;;7.80;75.80;101199.38;5088617;28;20040;-64
2022/02/03 11:21:48;;;;;;;10.60;4.95;;;;;;;7.86;74.87;101189.16;5081448;28;20048;-64
2022/02/03 11:24:29;;;;;;;11.75;5.28;;;;;;;7.84;74.85;101182.31;5078790;28;20518;-64
2022/02/03 11:30:31;;;;;;;11.00;4.47;;;;;;;7.69;74.67;101173.84;5109452;27;20138;-65
2022/02/03 11:33:06;;;;;;;12.02;4.60;;;;;;;7.47;76.50;101172.09;5077243;28;20066;-65
2022/02/03 11:36:13;;;;;;;9.25;4.47;;;;;;;7.65;74.75;101164.50;5081742;28;20043;-65
2022/02/03 11:38:37;;;;;;;15.35;5.05;;;;;;;7.68;74.89;101166.91;5082750;28;20046;-65
2022/02/03 11:41:26;;;;;;;14.50;4.88;;;;;;;7.79;73.93;101161.56;5074907;28;20043;-65
2022/02/03 11:49:36;;;;;;;10.55;4.45;;;;;;;7.63;75.03;101171.72;5075433;27;20410;-65
2022/02/03 11:53:06;;;;;;;11.43;4.97;;;;;;;7.52;76.71;101166.47;5048930;28;20048;-65
2022/02/03 12:08:03;;;;;;;10.07;4.95;;;;;;;7.58;74.79;101164.16;5073397;27;20350;-66
2022/02/03 12:20:49;;;;;;;11.25;5.30;;;;;;;7.26;76.43;101138.56;5083798;28;20492;-65
2022/02/03 12:26:28;;;;;;;11.90;5.53;;;;;;;7.34;76.41;101137.09;5116245;27;20875;-65
2022/02/03 12:29:02;;;;;;;13.07;5.55;;;;;;;7.49;75.51;101134.06;5111262;28;20053;-65
2022/02/03 12:40:00;;;;;;;10.95;5.45;;;;;;;7.47;75.94;101121.94;5103272;28;20040;-63
2022/02/03 12:45:16;;;;;;;12.52;5.70;;;;;;;7.48;75.04;101107.81;5108119;28;20040;-63
2022/02/03 12:47:47;;;;;;;12.75;6.35;;;;;;;7.48;75.55;101091.97;5108597;28;20046;-63
2022/02/03 12:50:20;;;;;;;11.90;5.57;;;;;;;7.59;75.33;101091.91;5107283;28;20039;-63
2022/02/03 12:52:46;;;;;;;13.30;5.50;;;;;;;7.61;75.85;101092.63;5108946;28;20075;-65
2022/02/03 12:55:35;;;;;;;17.13;5.85;;;;;;;7.60;76.38;101080.38;5109641;28;20503;-63
2022/02/03 12:58:12;;;;;;;14.85;5.80;;;;;;;7.46;75.34;101072.78;5104972;28;20590;-64
2022/02/03 13:00:47;;;;;;;13.77;6.10;;;;;;;7.45;75.03;101063.16;5101329;28;20038;-64
2022/02/03 13:03:19;;;;;;;12.60;6.03;;;;;;;7.42;76.17;101074.81;5109198;28;20039;-64
2022/02/03 13:05:57;;;;;;;15.32;5.93;;;;;;;7.39;76.25;101063.69;5107771;28;20039;-64
2022/02/03 13:08:36;;;;;;;13.70;6.68;;;;;;;7.40;76.32;101071.44;5107496;28;20044;-65
2022/02/03 13:11:14;;;;;;;14.98;6.40;;;;;;;7.41;75.95;101070.50;5109594;28;20092;-64
2022/02/03 13:16:29;;;;;;;12.70;6.28;;;;;;;7.37;76.56;101057.66;5104585;28;20438;-64
2022/02/03 13:21:51;;;;;;;17.75;6.53;;;;;;;7.43;75.85;101051.91;5129769;27;20387;-66
2022/02/03 13:27:10;;;;;;;15.65;5.90;;;;;;;7.45;75.18;101057.88;5122794;27;21013;-65
2022/02/03 13:29:52;;;;;;;15.82;6.13;;;;;;;7.26;75.52;101040.09;5103834;28;20451;-63
2022/02/03 13:32:25;;;;;;;11.98;5.93;;;;;;;7.29;76.14;101047.72;5090026;28;20554;-65
2022/02/03 13:35:02;;;;;;;12.90;6.18;;;;;;;7.33;75.71;101050.97;5105004;28;20050;-64
2022/02/03 13:37:36;;;;;;;14.18;5.85;;;;;;;7.33;75.73;101054.47;5107197;28;20048;-65
2022/02/03 13:40:10;;;;;;;13.30;6.13;;;;;;;7.26;76.44;101055.94;5102917;28;20042;-64
2022/02/03 13:42:43;;;;;;;16.00;6.63;;;;;;;7.38;76.74;101064.63;5101658;28;20526;-65
2022/02/03 13:45:10;;;;;;;14.75;6.13;;;;;;;7.37;76.03;101060.28;5107103;28;20079;-65
2022/02/03 13:47:37;;;;;;;12.38;5.85;;;;;;;7.36;75.42;101056.84;5106696;28;20059;-65
2022/02/03 13:50:21;;;;;;;12.10;6.13;;;;;;;7.28;76.26;101051.34;5109152;28;20044;-65
2022/02/03 14:18:04;;;;;;;15.90;6.32;;;;;;;6.93;78.02;101031.31;5085397;27;20456;-65
2022/02/03 14:20:40;;;;;;;16.27;6.78;;;;;;;6.90;78.74;101029.75;5071410;28;20036;-64
2022/02/03 14:28:23;;;;;;;15.35;6.88;;;;;;;7.07;77.60;101025.72;5075694;28;20131;-63
2022/02/03 14:30:54;;;;;;;14.85;6.85;;;;;;;6.98;77.51;101020.38;5075843;28;20048;-64
2022/02/03 14:33:28;;;;;;;17.30;6.47;;;;;;;6.91;77.99;101006.84;5087488;28;20045;-63
2022/02/03 14:36:04;;;;;;;16.33;6.45;;;;;;;6.94;77.79;101003.97;5061943;28;20037;-64
2022/02/03 14:38:38;;;;;;;15.82;5.65;;;;;;;6.92;76.64;101000.59;5100573;28;20032;-65
2022/02/03 14:42:23;;;;;;;14.65;7.07;;;;;;;6.93;77.36;100997.03;5096472;27;20437;-66
2022/02/03 14:44:51;;;;;;;19.67;8.63;;;;;;;7.17;76.59;100986.25;5092960;28;20111;-66
2022/02/03 14:47:20;;;;;;;15.20;6.57;;;;;;;7.17;76.53;100995.97;5086702;28;20048;-63
2022/02/03 14:49:47;;;;;;;19.25;7.07;;;;;;;7.17;76.45;100985.41;5098801;28;20048;-63
2022/02/03 14:52:27;;;;;;;21.90;6.55;;;;;;;7.23;76.78;100979.66;5088751;28;20043;-63
2022/02/03 14:58:19;;;;;;;15.95;6.22;;;;;;;7.45;75.45;100982.16;5101531;28;20036;-63
2022/02/03 15:00:28;;;;;;;13.32;5.57;;;;;;;7.42;74.34;100971.88;5096502;28;20094;-63
2022/02/03 15:02:56;;;;;;;13.90;5.70;;;;;;;7.26;75.26;100960.94;5091702;28;20071;-64
2022/02/03 15:05:30;;;;;;;11.10;6.20;;;;;;;7.22;75.80;100960.34;5094511;28;20048;-64
2022/02/03 15:07:59;;;;;;;16.55;7.60;;;;;;;7.28;75.37;100962.47;5095517;28;20040;-63
2022/02/03 15:10:43;;;;;;;14.60;6.88;;;;;;;7.32;75.03;100949.03;5095531;28;20032;-63
2022/02/03 15:13:19;;;;;;;16.13;6.68;;;;;;;7.28;74.32;100946.63;5091746;28;20047;-63
2022/02/03 15:15:46;;;;;;;15.45;6.55;;;;;;;7.27;75.13;100944.94;5096112;28;20036;-63
2022/02/03 15:18:15;;;;;;;17.33;6.50;;;;;;;7.23;75.63;100953.25;5094145;28;20508;-63
2022/02/03 15:20:42;;;;;;;15.57;6.90;;;;;;;7.27;74.42;100955.50;5094087;28;20755;-63
2022/02/03 15:23:09;;;;;;;15.95;6.63;;;;;;;7.39;75.05;100952.81;5091367;28;20385;-64
2022/02/03 15:25:36;;;;;;;15.52;6.22;;;;;;;7.35;75.26;100956.66;5094388;28;20123;-64
2022/02/03 15:28:03;;;;;;;16.05;7.20;;;;;;;7.24;75.35;100952.28;5081888;28;20097;-63
2022/02/03 15:30:30;;;;;;;17.92;6.93;;;;;;;7.26;74.71;100953.84;5119560;28;20115;-63
2022/02/03 15:32:57;;;;;;;18.67;6.82;;;;;;;7.21;75.21;100952.53;5098203;28;20047;-65
2022/02/03 15:35:33;;;;;;;22.00;8.00;;;;;;;7.15;76.05;100943.34;5078579;28;20053;-65
2022/02/03 15:38:01;;;;;;;18.05;7.50;;;;;;;7.23;75.28;100938.25;5094687;28;20063;-63
2022/02/03 15:40:29;;;;;;;16.77;6.82;;;;;;;7.24;75.56;100945.22;5128010;27;20063;-64
2022/02/03 15:43:08;;;;;;;19.90;7.57;;;;;;;7.33;75.62;100940.13;5089316;28;20047;-63
2022/02/03 15:45:38;;;;;;;17.50;7.28;;;;;;;7.43;74.79;100946.31;5099592;28;20067;-63
2022/02/03 15:56:50;;;;;;;24.23;9.10;;;;;;;7.28;75.72;100928.16;5080868;28;20044;-63
2022/02/03 16:02:37;;;;;;;19.17;8.02;;;;;;;7.24;75.39;100913.56;5116630;27;20403;-64
2022/02/03 16:16:47;;;;;;;18.90;7.03;;;;;;;7.32;74.76;100923.47;5090134;28;20583;-62
2022/02/03 16:18:36;;;;;;;21.77;8.40;;;;;;;7.12;75.41;100917.19;5121994;28;20039;-63
2022/02/03 16:21:15;;;;;;;17.80;7.35;;;;;;;7.26;75.23;100916.06;5107493;28;20067;-63
2022/02/03 16:24:08;;;;;;;19.95;8.32;;;;;;;7.23;75.22;100921.59;5104223;28;20074;-64
2022/02/03 16:43:32;;;;;;;19.55;7.97;;;;;;;6.96;77.13;100922.06;5150125;27;20047;-62
2022/02/03 16:51:43;;;;;;;17.27;8.05;;;;;;;6.92;78.69;100930.22;5134410;27;20034;-63
2022/02/03 16:54:11;;;;;;;17.77;8.35;;;;;;;6.93;78.03;100923.16;5129359;27;20108;-62
2022/02/03 16:56:38;;;;;;;21.02;9.07;;;;;;;7.01;77.42;100920.72;5147415;27;20054;-63
2022/02/03 16:59:07;;;;;;;22.85;9.73;;;;;;;6.95;78.11;100929.16;5130650;27;20045;-62
2022/02/03 17:01:33;;;;;;;20.80;8.73;;;;;;;7.09;77.72;100918.31;5147114;27;20043;-63
2022/02/03 17:04:00;;;;;;;21.85;8.73;;;;;;;7.20;77.10;100919.19;5145713;27;20039;-62
2022/02/03 17:06:27;;;;;;;17.40;8.20;;;;;;;7.08;77.78;100923.72;5128121;27;20043;-63
2022/02/03 17:08:53;;;;;;;19.58;8.55;;;;;;;7.19;77.16;100923.66;5148902;27;20038;-63
2022/02/03 17:11:20;;;;;;;21.35;8.82;;;;;;;7.14;76.89;100927.63;5149298;27;20486;-63
2022/02/03 17:13:47;;;;;;;26.30;9.43;;;;;;;7.26;76.49;100932.72;5150092;27;20035;-63
2022/02/03 17:16:20;;;;;;;21.35;9.30;;;;;;;7.17;76.26;100924.72;5125359;27;20072;-63
2022/02/03 17:18:49;;;;;;;20.42;8.98;;;;;;;7.06;76.92;100923.00;5130462;27;20110;-63
2022/02/03 17:21:17;;;;;;;25.13;8.57;;;;;;;7.02;77.82;100925.06;5148833;27;20039;-63
2022/02/03 17:23:44;;;;;;;22.05;9.45;;;;;;;7.13;77.48;100926.81;5146284;27;20130;-63
2022/02/03 17:26:14;;;;;;;20.40;8.73;;;;;;;7.20;76.74;100927.94;5093243;27;20051;-63
2022/02/03 17:28:55;;;;;;;19.13;9.05;;;;;;;7.09;76.59;100928.00;5146176;27;20051;-63
2022/02/03 17:31:32;;;;;;;22.10;8.98;;;;;;;7.02;77.67;100932.09;5139895;27;20043;-63
2022/02/03 18:05:14;;;;;;;23.60;10.75;;;;;;;7.00;78.47;100924.31;5121413;28;20043;-64
2022/02/03 18:07:41;;;;;;;32.75;13.23;;;;;;;6.90;79.00;100918.13;5119823;27;20122;-64
2022/02/03 18:10:42;;;;;;;30.20;13.73;;;;;;;6.82;79.28;100918.78;5129947;27;20510;-64
2022/02/03 18:54:33;;;;;;;26.05;12.65;;;;;;;6.98;79.44;100928.06;5072720;27;20460;-64
2022/02/03 18:57:20;;;;;;;29.77;13.20;;;;;;;6.87;79.37;100919.22;5066866;28;20386;-62
2022/02/03 19:20:58;;;;;;;30.48;14.30;;;;;;;6.86;80.24;100914.91;5080799;28;20496;-64
2022/02/03 19:22:59;;;;;;;25.15;13.95;;;;;;;7.01;79.98;100901.44;5109656;28;20122;-63
2022/02/03 19:27:47;;;;;;;29.30;14.32;;;;;;;6.88;81.83;100899.81;5091843;28;20136;-64
2022/02/03 20:06:33;;;;;;;32.80;17.35;;;;;;;6.71;85.21;100918.78;5087926;28;20047;-63
2022/02/03 20:08:57;;;;;;;32.45;17.45;;;;;;;6.76;85.59;100918.44;5067542;28;20426;-62
2022/02/03 20:11:25;;;;;;;33.75;16.35;;;;;;;6.72;85.93;100921.31;5080231;28;20036;-62
2022/02/03 20:13:52;;;;;;;36.72;17.40;;;;;;;6.66;86.57;100916.53;5059074;28;20104;-63
2022/02/03 20:16:21;;;;;;;36.15;17.23;;;;;;;6.75;86.84;100916.75;5074086;28;20044;-64
2022/02/03 20:18:48;;;;;;;36.70;17.77;;;;;;;6.70;86.66;100915.31;5073346;28;20405;-63
2022/02/03 20:21:15;;;;;;;39.28;18.23;;;;;;;6.78;86.96;100911.22;5090010;28;20063;-64
2022/02/03 20:23:44;;;;;;;43.97;18.75;;;;;;;6.73;86.16;100923.00;5092728;28;20040;-63
2022/02/03 20:26:13;;;;;;;34.65;17.90;;;;;;;6.66;86.09;100913.06;5070802;28;20044;-64
2022/02/03 20:28:40;;;;;;;34.33;18.15;;;;;;;6.64;86.80;100912.34;5076335;28;20056;-64
2022/02/03 20:31:08;;;;;;;37.80;17.80;;;;;;;6.72;86.64;100917.84;5071764;28;20028;-64
2022/02/03 20:33:36;;;;;;;35.25;18.70;;;;;;;6.70;85.90;100914.50;5072841;28;20039;-64
2022/02/03 20:36:06;;;;;;;36.75;17.63;;;;;;;6.70;85.68;100917.13;5093926;28;20047;-65
2022/02/03 20:38:33;;;;;;;36.50;18.40;;;;;;;6.72;86.31;100907.28;5087023;28;20172;-64
2022/02/03 20:41:00;;;;;;;35.67;18.15;;;;;;;6.68;86.45;100913.78;5065866;28;20036;-64
2022/02/03 20:43:27;;;;;;;38.72;18.67;;;;;;;6.62;86.68;100911.63;5055263;28;20048;-64
2022/02/03 20:45:53;;;;;;;36.55;18.80;;;;;;;6.51;87.47;100907.22;5085679;28;20051;-64
2022/02/03 20:48:22;;;;;;;37.20;19.45;;;;;;;6.63;86.51;100913.31;5042641;28;20071;-62
2022/02/03 20:50:49;;;;;;;43.05;20.17;;;;;;;6.60;86.57;100911.75;5093188;28;20097;-62
2022/02/03 20:53:17;;;;;;;36.25;18.10;;;;;;;6.73;86.17;100907.16;5072561;28;20105;-63
2022/02/03 20:55:45;;;;;;;35.78;19.50;;;;;;;6.58;87.93;100910.22;5090713;28;20051;-62
2022/02/03 20:58:16;;;;;;;42.30;19.50;;;;;;;6.64;87.47;100897.38;5074863;28;20032;-63
2022/02/03 21:00:49;;;;;;;;;;;;;;;6.61;87.30;100910.78;5088008;28;20508;-63
2022/02/03 21:03:27;;;;;;;36.80;18.75;;;;;;;6.49;88.67;100898.59;5091889;28;19967;-64
2022/02/03 21:05:54;;;;;;;41.30;19.42;;;;;;;6.61;87.97;100902.88;5074993;28;20403;-62
2022/02/03 21:08:29;;;;;;;42.22;19.85;;;;;;;6.59;88.08;100894.28;5091775;28;20504;-63
2022/02/03 21:10:56;;;;;;;42.25;18.67;;;;;;;6.53;88.33;100897.38;5086790;28;20036;-63
2022/02/03 21:13:22;;;;;;;36.63;20.00;;;;;;;6.42;88.87;100890.38;5093393;28;20036;-62
2022/02/03 21:15:51;;;;;;;41.90;18.85;;;;;;;6.41;89.45;100898.41;5093377;28;20032;-63
2022/02/03 21:18:19;;;;;;;38.53;19.30;;;;;;;6.58;87.86;100897.03;5093789;28;20088;-62
2022/02/03 21:20:47;;;;;;;34.75;19.58;;;;;;;6.49;87.82;100898.59;5075879;28;20044;-62
2022/02/03 21:23:14;;;;;;;38.25;20.80;;;;;;;6.43;88.17;100889.41;5088295;28;20048;-63
2022/02/03 21:25:44;;;;;;;33.65;19.02;;;;;;;6.52;88.17;100891.28;5074134;28;20558;-63
2022/02/03 21:28:18;;;;;;;39.05;20.55;;;;;;;6.42;87.16;100894.78;5092807;28;20403;-64
2022/02/03 21:30:48;;;;;;;35.67;19.23;;;;;;;6.38;88.15;100891.56;5089327;28;20040;-62
2022/02/03 21:33:22;;;;;;;39.85;20.40;;;;;;;6.45;88.56;100900.66;5090222;28;20037;-63
2022/02/03 21:35:50;;;;;;;39.20;20.15;;;;;;;6.50;87.78;100895.03;5086621;28;20055;-63
2022/02/03 21:38:18;;;;;;;39.83;20.17;;;;;;;6.52;87.80;100895.72;5093250;28;20048;-63
2022/02/03 21:40:44;;;;;;;42.83;21.48;;;;;;;6.58;86.61;100895.22;5085982;28;20047;-63